Time;durP1;ratioP1;P1;durP2;ratioP2;P2;SDS_P1;SDS_P2;PMS_P1;PMS_P2;Temp;Humidity;BMP_temperature;BMP_pressure;BME280_temperature;BME280_humidity;BME280_pressure;Samples;Min_cycle;Max_cycle;Signal;HPM_P1;HPM_P2
2022/04/19 00:00:42;;;;;;;8.43;5.90;;;15.10;99.90;;;;;;5025378;28;20513;-71
2022/04/19 00:03:10;;;;;;;8.63;6.60;;;15.00;99.90;;;;;;5024529;28;20030;-72
2022/04/19 00:05:36;;;;;;;8.27;6.38;;;15.00;99.90;;;;;;5023581;28;20021;-71
2022/04/19 00:08:06;;;;;;;8.63;6.22;;;15.00;99.90;;;;;;5028602;28;20030;-71
2022/04/19 00:10:33;;;;;;;8.57;6.25;;;14.90;99.90;;;;;;5031325;28;20030;-71
2022/04/19 00:13:01;;;;;;;10.63;6.93;;;14.80;99.90;;;;;;5027865;28;20071;-71
2022/04/19 00:15:28;;;;;;;10.10;6.53;;;14.70;99.90;;;;;;5027237;28;20033;-70
2022/04/19 00:17:59;;;;;;;11.30;6.38;;;14.60;99.90;;;;;;5027763;28;20533;-71
2022/04/19 00:20:25;;;;;;;9.38;6.25;;;14.60;99.90;;;;;;5027916;28;20022;-71
2022/04/19 00:22:52;;;;;;;9.90;7.40;;;14.60;99.90;;;;;;5030110;28;20018;-71
2022/04/19 00:25:19;;;;;;;12.75;9.25;;;14.60;99.90;;;;;;5029667;28;20474;-71
2022/04/19 00:27:45;;;;;;;11.95;8.57;;;14.50;99.90;;;;;;5027985;28;20112;-71
2022/04/19 00:30:12;;;;;;;12.73;8.38;;;14.40;99.90;;;;;;5027597;28;20036;-71
2022/04/19 00:32:39;;;;;;;12.13;8.35;;;14.40;99.90;;;;;;5029605;28;20034;-71
2022/04/19 00:35:07;;;;;;;12.15;7.60;;;14.30;99.90;;;;;;5028482;28;20046;-72
2022/04/19 00:37:34;;;;;;;10.60;7.47;;;14.40;99.90;;;;;;5031350;28;20065;-71
2022/04/19 00:40:08;;;;;;;12.13;7.75;;;14.40;99.90;;;;;;5027928;28;20520;-72
2022/04/19 00:42:35;;;;;;;11.00;8.20;;;14.30;99.90;;;;;;5027806;28;20034;-71
2022/04/19 00:45:03;;;;;;;11.73;7.95;;;14.20;99.90;;;;;;5013108;28;20061;-71
2022/04/19 00:47:32;;;;;;;11.65;7.20;;;14.00;99.90;;;;;;5032001;28;20061;-71
2022/04/19 00:50:02;;;;;;;12.30;7.68;;;13.90;99.90;;;;;;5031992;28;20034;-71
2022/04/19 00:52:33;;;;;;;10.98;7.47;;;13.90;99.90;;;;;;5031011;28;20041;-71
2022/04/19 00:55:00;;;;;;;9.30;7.40;;;13.90;99.90;;;;;;5031711;28;20041;-71
2022/04/19 00:57:26;;;;;;;13.98;8.68;;;14.00;99.90;;;;;;5033526;28;20494;-71
2022/04/19 00:59:58;;;;;;;11.15;7.78;;;14.00;99.90;;;;;;5032673;28;20032;-71
2022/04/19 01:02:25;;;;;;;11.05;7.68;;;14.00;99.90;;;;;;5031429;28;20055;-71
2022/04/19 01:04:52;;;;;;;12.20;7.72;;;14.00;99.90;;;;;;5031534;28;20541;-71
2022/04/19 01:07:19;;;;;;;10.77;7.28;;;14.00;99.90;;;;;;5029307;28;20434;-71
2022/04/19 01:09:46;;;;;;;9.43;6.88;;;14.00;99.90;;;;;;5031536;28;20037;-71
2022/04/19 01:15:01;;;;;;;10.27;7.25;;;14.10;99.90;;;;;;5031632;28;20040;-71
2022/04/19 01:17:27;;;;;;;11.02;7.68;;;13.80;99.90;;;;;;5028553;28;20060;-71
2022/04/19 01:19:53;;;;;;;10.27;6.95;;;13.60;99.90;;;;;;5035688;28;20487;-72
2022/04/19 01:22:19;;;;;;;9.43;6.85;;;13.60;99.90;;;;;;5034661;28;20025;-71
2022/04/19 01:24:45;;;;;;;8.50;6.97;;;13.60;99.90;;;;;;5035339;28;20025;-71
2022/04/19 01:27:13;;;;;;;10.38;6.43;;;13.80;99.90;;;;;;5035822;28;20036;-70
2022/04/19 01:29:39;;;;;;;11.10;7.03;;;13.80;99.90;;;;;;5035139;28;20033;-71
2022/04/19 01:32:07;;;;;;;12.60;7.30;;;13.90;99.90;;;;;;5035417;28;20059;-71
2022/04/19 01:34:32;;;;;;;12.05;7.13;;;14.10;99.90;;;;;;5034421;28;20037;-71
2022/04/19 01:36:59;;;;;;;7.63;6.22;;;14.00;99.90;;;;;;5036930;28;20037;-71
2022/04/19 01:42:09;;;;;;;8.63;6.72;;;14.10;99.90;;;;;;5034942;28;20128;-71
2022/04/19 01:44:36;;;;;;;9.52;6.57;;;13.90;99.90;;;;;;5033777;28;20037;-71
2022/04/19 01:47:07;;;;;;;10.82;6.07;;;13.90;99.90;;;;;;5035127;28;20056;-71
2022/04/19 01:49:34;;;;;;;8.27;5.75;;;14.00;99.90;;;;;;5034208;28;20377;-71
2022/04/19 01:52:01;;;;;;;8.05;5.53;;;14.00;99.90;;;;;;5035190;28;20079;-71
2022/04/19 01:54:29;;;;;;;8.43;5.45;;;14.10;99.90;;;;;;5034755;28;20403;-71
2022/04/19 01:56:55;;;;;;;10.30;5.85;;;14.20;99.90;;;;;;5034182;28;20100;-71
2022/04/19 01:59:21;;;;;;;9.52;5.97;;;14.20;99.90;;;;;;5034954;28;20036;-71
2022/04/19 02:01:48;;;;;;;7.25;5.32;;;14.20;99.90;;;;;;5034147;28;20025;-71
2022/04/19 02:04:18;;;;;;;6.22;4.50;;;14.20;99.90;;;;;;5034176;28;20041;-71
2022/04/19 02:06:44;;;;;;;6.47;4.40;;;14.20;99.90;;;;;;5034509;28;20030;-71
2022/04/19 02:09:10;;;;;;;9.50;4.70;;;14.20;99.90;;;;;;5034856;28;20426;-71
2022/04/19 02:11:38;;;;;;;9.18;4.63;;;14.20;99.90;;;;;;5034165;28;20025;-71
2022/04/19 02:14:04;;;;;;;6.65;4.15;;;14.30;99.90;;;;;;5033878;28;20538;-71
2022/04/19 02:16:31;;;;;;;7.43;4.93;;;14.30;99.90;;;;;;5028863;28;20049;-72
2022/04/19 02:18:57;;;;;;;7.72;4.72;;;14.40;99.90;;;;;;5034878;28;20068;-71
2022/04/19 02:21:23;;;;;;;7.55;4.45;;;14.40;99.90;;;;;;5034408;28;20025;-71
2022/04/19 02:23:50;;;;;;;7.40;4.95;;;14.30;99.90;;;;;;5034475;28;20399;-71
2022/04/19 02:26:15;;;;;;;7.20;5.13;;;14.30;99.90;;;;;;5033334;28;20568;-71
2022/04/19 02:28:45;;;;;;;7.15;4.50;;;14.20;99.90;;;;;;5033206;28;20029;-71
2022/04/19 02:31:11;;;;;;;8.30;5.15;;;14.20;99.90;;;;;;5034540;28;20034;-71
2022/04/19 02:33:37;;;;;;;7.40;5.30;;;14.20;99.90;;;;;;5033852;28;20026;-71
2022/04/19 02:36:03;;;;;;;6.03;3.97;;;14.10;99.90;;;;;;5034592;28;20495;-71
2022/04/19 02:38:29;;;;;;;7.03;4.20;;;14.10;99.90;;;;;;5033838;28;20037;-70
2022/04/19 02:40:56;;;;;;;9.70;4.57;;;14.20;99.90;;;;;;5033496;28;20037;-70
2022/04/19 02:43:21;;;;;;;6.50;4.38;;;14.10;99.90;;;;;;5033039;28;20112;-71
2022/04/19 02:45:47;;;;;;;6.70;4.43;;;14.10;99.90;;;;;;5034091;28;20161;-71
2022/04/19 02:48:13;;;;;;;7.50;4.28;;;14.10;99.90;;;;;;5033980;28;20029;-71
2022/04/19 02:50:46;;;;;;;7.13;4.40;;;14.00;99.90;;;;;;5033899;28;20032;-71
2022/04/19 02:53:12;;;;;;;6.50;4.27;;;14.10;99.90;;;;;;5019979;28;20025;-71
2022/04/19 02:55:38;;;;;;;6.75;4.22;;;14.10;99.90;;;;;;5032567;28;20022;-71
2022/04/19 02:58:04;;;;;;;5.95;4.30;;;14.10;99.90;;;;;;5033734;28;20052;-71
2022/04/19 03:00:30;;;;;;;8.48;4.80;;;14.10;99.90;;;;;;5033997;28;20029;-71
2022/04/19 03:02:56;;;;;;;6.65;4.28;;;14.10;99.90;;;;;;5033125;28;20041;-71
2022/04/19 03:05:21;;;;;;;7.22;5.25;;;14.10;99.90;;;;;;5033978;28;20441;-71
2022/04/19 03:07:48;;;;;;;7.90;4.82;;;14.00;99.90;;;;;;5032828;28;20057;-71
2022/04/19 03:10:16;;;;;;;9.27;5.28;;;13.90;99.90;;;;;;5032710;28;20029;-71
2022/04/19 03:12:45;;;;;;;6.40;4.70;;;13.90;99.90;;;;;;5033082;28;20501;-71
2022/04/19 03:15:12;;;;;;;7.15;4.70;;;13.90;99.90;;;;;;5033249;28;20025;-71
2022/04/19 03:17:38;;;;;;;7.60;4.70;;;13.90;99.90;;;;;;5026541;28;20509;-71
2022/04/19 03:20:08;;;;;;;6.80;4.60;;;13.90;99.90;;;;;;5033711;28;20040;-71
2022/04/19 03:28:04;;;;;;;6.20;4.00;;;13.90;99.90;;;;;;5034735;28;20052;-71
2022/04/19 03:30:30;;;;;;;7.25;3.97;;;13.90;99.90;;;;;;5032841;28;20075;-71
2022/04/19 03:32:56;;;;;;;5.00;3.70;;;14.00;99.90;;;;;;5034199;28;20041;-72
2022/04/19 03:35:21;;;;;;;6.57;3.70;;;14.00;99.90;;;;;;5034517;28;20048;-71
2022/04/19 03:37:47;;;;;;;5.90;3.85;;;13.90;99.90;;;;;;5031704;28;20128;-71
2022/04/19 03:40:14;;;;;;;9.63;5.25;;;13.80;99.90;;;;;;5031823;28;20025;-71
2022/04/19 03:42:42;;;;;;;6.85;4.55;;;13.70;99.90;;;;;;5032640;28;20083;-70
2022/04/19 03:45:09;;;;;;;9.13;4.93;;;13.40;99.90;;;;;;5032530;28;20026;-71
2022/04/19 03:47:36;;;;;;;10.45;5.57;;;13.30;99.90;;;;;;5033209;28;20022;-71
2022/04/19 03:50:02;;;;;;;9.93;4.57;;;13.10;99.90;;;;;;5032788;28;20068;-71
2022/04/19 03:52:27;;;;;;;10.82;5.20;;;13.00;99.90;;;;;;5031342;28;20030;-71
2022/04/19 03:54:53;;;;;;;8.23;5.32;;;12.90;99.90;;;;;;5032163;28;20246;-71
2022/04/19 03:57:19;;;;;;;8.02;5.20;;;13.00;99.90;;;;;;5031150;28;20037;-71
2022/04/19 03:59:45;;;;;;;7.70;4.43;;;12.90;99.90;;;;;;5032747;28;20108;-71
2022/04/19 04:02:11;;;;;;;7.30;4.53;;;12.90;99.90;;;;;;5032706;28;20100;-71
2022/04/19 04:04:37;;;;;;;7.45;4.75;;;12.90;99.90;;;;;;5031814;28;20113;-71
2022/04/19 04:07:05;;;;;;;9.45;4.63;;;12.90;99.90;;;;;;5031644;28;20026;-71
2022/04/19 04:09:35;;;;;;;7.38;4.13;;;12.90;99.90;;;;;;5032757;28;20055;-70
2022/04/19 04:12:09;;;;;;;8.32;5.15;;;12.90;99.90;;;;;;5032165;28;20033;-71
2022/04/19 04:14:35;;;;;;;7.97;5.07;;;12.90;99.90;;;;;;5033673;28;20582;-71
2022/04/19 04:17:01;;;;;;;7.53;4.82;;;12.90;99.90;;;;;;5025707;28;20045;-71
2022/04/19 04:19:27;;;;;;;7.60;4.78;;;12.80;99.90;;;;;;5031848;28;20041;-70
2022/04/19 04:21:53;;;;;;;6.60;4.82;;;12.80;99.90;;;;;;5031923;28;20481;-71
2022/04/19 04:24:19;;;;;;;7.68;4.65;;;12.80;99.90;;;;;;5031876;28;20022;-70
2022/04/19 04:26:45;;;;;;;8.45;4.97;;;12.80;99.90;;;;;;5032599;28;20026;-71
2022/04/19 04:29:11;;;;;;;9.00;4.68;;;12.70;99.90;;;;;;5032278;28;20508;-71
2022/04/19 04:31:38;;;;;;;7.40;4.78;;;12.50;99.90;;;;;;5031199;28;20496;-71
2022/04/19 04:34:06;;;;;;;7.00;4.72;;;12.50;99.90;;;;;;5032056;28;20410;-71
2022/04/19 04:36:33;;;;;;;7.35;5.03;;;12.50;99.90;;;;;;5031513;28;20029;-71
2022/04/19 04:38:58;;;;;;;8.18;5.45;;;12.40;99.90;;;;;;5032376;28;20091;-70
2022/04/19 04:41:24;;;;;;;7.80;5.20;;;12.40;99.90;;;;;;5031786;28;20022;-71
2022/04/19 04:43:50;;;;;;;8.18;5.20;;;12.40;99.90;;;;;;5031623;28;20448;-71
2022/04/19 04:51:47;;;;;;;7.97;5.05;;;12.20;99.90;;;;;;5036062;28;20048;-71
2022/04/19 04:54:12;;;;;;;7.50;4.90;;;12.30;99.90;;;;;;5037188;28;20086;-71
2022/04/19 04:56:38;;;;;;;7.05;5.00;;;12.40;99.90;;;;;;5036295;28;20480;-74
2022/04/19 04:59:04;;;;;;;10.02;5.00;;;12.40;99.90;;;;;;5035595;28;20095;-72
2022/04/19 05:01:30;;;;;;;8.40;4.78;;;12.40;99.90;;;;;;5026642;28;20041;-72
2022/04/19 05:03:55;;;;;;;9.82;4.53;;;12.40;99.90;;;;;;5034477;28;20025;-71
2022/04/19 05:06:21;;;;;;;9.15;5.03;;;12.40;99.90;;;;;;5034817;28;20491;-72
2022/04/19 05:08:47;;;;;;;7.15;4.68;;;12.40;99.90;;;;;;5025435;28;20036;-71
2022/04/19 05:11:12;;;;;;;6.78;4.80;;;12.50;99.90;;;;;;5035828;28;20032;-72
2022/04/19 05:13:38;;;;;;;8.70;4.78;;;12.50;99.90;;;;;;5035014;28;20052;-72
2022/04/19 05:16:04;;;;;;;6.30;4.70;;;12.40;99.90;;;;;;5035370;28;20103;-72
2022/04/19 05:18:33;;;;;;;7.35;4.32;;;12.40;99.90;;;;;;5035217;28;20056;-72
2022/04/19 05:20:58;;;;;;;8.73;4.90;;;12.40;99.90;;;;;;5026310;28;20026;-72
2022/04/19 05:23:24;;;;;;;6.78;4.50;;;12.40;99.90;;;;;;5035550;28;20128;-72
2022/04/19 05:25:50;;;;;;;10.05;4.90;;;12.40;99.90;;;;;;5035354;28;20048;-72
2022/04/19 05:28:16;;;;;;;7.70;4.57;;;12.40;99.90;;;;;;5035014;28;20026;-72
2022/04/19 05:30:41;;;;;;;8.15;4.65;;;12.40;99.90;;;;;;5034996;28;20422;-71
2022/04/19 05:33:07;;;;;;;8.30;5.13;;;12.50;99.90;;;;;;5037069;28;20375;-72
2022/04/19 05:35:33;;;;;;;9.20;4.60;;;12.50;99.90;;;;;;5034765;28;20773;-75
2022/04/19 05:37:59;;;;;;;10.10;4.97;;;12.60;99.90;;;;;;5035138;28;20033;-75
2022/04/19 05:40:26;;;;;;;8.05;4.38;;;12.60;99.90;;;;;;5034755;28;20030;-75
2022/04/19 05:42:51;;;;;;;6.82;4.68;;;12.60;99.90;;;;;;5034483;28;20057;-71
2022/04/19 05:45:18;;;;;;;7.53;4.55;;;12.60;99.90;;;;;;5035059;28;20071;-71
2022/04/19 05:47:46;;;;;;;9.13;4.60;;;12.60;99.90;;;;;;5034897;28;20032;-71
2022/04/19 05:50:11;;;;;;;8.05;4.90;;;12.70;99.90;;;;;;5034535;28;20115;-71
2022/04/19 05:52:38;;;;;;;8.30;4.68;;;12.60;99.90;;;;;;5034808;28;20515;-71
2022/04/19 05:55:04;;;;;;;7.45;4.28;;;12.70;99.90;;;;;;5034335;28;20032;-72
2022/04/19 05:57:30;;;;;;;6.80;4.72;;;12.80;99.90;;;;;;5030105;28;20072;-71
2022/04/19 05:59:56;;;;;;;10.05;4.75;;;12.70;99.90;;;;;;5034998;28;20515;-73
2022/04/19 06:05:06;;;;;;;10.63;4.88;;;12.80;99.90;;;;;;5034828;28;20062;-70
2022/04/19 06:07:32;;;;;;;8.55;4.53;;;13.00;99.90;;;;;;5033913;28;20512;-71
2022/04/19 06:09:59;;;;;;;7.63;4.25;;;12.90;99.90;;;;;;5035824;28;20106;-71
2022/04/19 06:12:25;;;;;;;8.98;4.13;;;13.00;99.90;;;;;;5036200;28;20128;-70
2022/04/19 06:14:51;;;;;;;7.10;4.50;;;13.00;99.90;;;;;;5030943;28;20040;-71
2022/04/19 06:17:18;;;;;;;7.03;4.53;;;13.10;99.90;;;;;;5031971;28;20080;-71
2022/04/19 06:19:47;;;;;;;10.23;4.70;;;13.10;99.90;;;;;;5030863;28;20123;-71
2022/04/19 06:22:13;;;;;;;7.45;4.85;;;13.20;99.90;;;;;;5032590;28;20395;-71
2022/04/19 06:24:39;;;;;;;10.27;5.15;;;13.20;99.90;;;;;;5032039;28;20045;-71
2022/04/19 06:27:05;;;;;;;10.93;6.07;;;13.30;99.90;;;;;;5032203;28;20108;-71
2022/04/19 06:29:31;;;;;;;10.07;5.97;;;13.40;99.90;;;;;;5032334;28;20037;-71
2022/04/19 06:31:56;;;;;;;11.52;5.93;;;13.50;99.90;;;;;;5031279;28;20367;-71
2022/04/19 06:34:22;;;;;;;10.88;6.05;;;13.50;99.90;;;;;;5032017;28;20025;-71
2022/04/19 06:36:48;;;;;;;10.23;6.50;;;13.70;99.90;;;;;;5032298;28;20124;-71
2022/04/19 06:39:16;;;;;;;11.15;7.10;;;13.70;99.90;;;;;;5032149;28;20195;-71
2022/04/19 06:41:42;;;;;;;10.10;6.40;;;13.80;99.90;;;;;;5032575;28;20036;-71
2022/04/19 06:44:08;;;;;;;8.15;5.95;;;13.90;99.90;;;;;;5031133;28;20029;-71
2022/04/19 06:46:36;;;;;;;9.25;5.85;;;14.00;99.90;;;;;;5031708;28;20040;-71
2022/04/19 06:49:05;;;;;;;9.48;5.75;;;14.20;99.90;;;;;;5033422;28;20029;-71
2022/04/19 06:51:32;;;;;;;9.00;5.10;;;14.30;99.90;;;;;;5033640;28;20031;-71
2022/04/19 06:53:58;;;;;;;8.65;5.57;;;14.30;99.90;;;;;;5031215;28;20415;-70
2022/04/19 06:56:23;;;;;;;11.57;4.75;;;14.30;99.90;;;;;;5027083;28;20037;-71
2022/04/19 06:58:50;;;;;;;7.28;4.15;;;14.30;99.90;;;;;;5032103;28;20080;-71
2022/04/19 07:01:16;;;;;;;6.82;3.95;;;14.50;99.90;;;;;;5031539;28;20025;-71
2022/04/19 07:03:42;;;;;;;8.25;4.53;;;14.50;99.90;;;;;;5031567;28;20545;-74
2022/04/19 07:06:08;;;;;;;7.05;3.80;;;14.50;99.90;;;;;;5030670;28;20067;-73
2022/04/19 07:08:34;;;;;;;10.05;3.58;;;14.60;99.90;;;;;;5022284;28;20092;-73
2022/04/19 07:11:00;;;;;;;7.55;3.72;;;14.70;99.90;;;;;;5033587;28;20033;-73
2022/04/19 07:13:26;;;;;;;7.70;3.65;;;14.70;99.90;;;;;;5032523;28;20029;-74
2022/04/19 07:15:53;;;;;;;7.88;3.70;;;14.80;99.90;;;;;;5032875;28;20087;-74
2022/04/19 07:18:23;;;;;;;8.07;3.55;;;15.00;99.90;;;;;;5033565;28;20033;-74
2022/04/19 07:29:07;;;;;;;10.68;3.67;;;15.30;99.90;;;;;;5033523;28;20028;-74
2022/04/19 07:31:34;;;;;;;5.07;2.78;;;15.40;99.90;;;;;;5032230;28;20075;-74
2022/04/19 07:34:00;;;;;;;7.40;3.50;;;15.50;99.90;;;;;;5033015;28;20029;-75
2022/04/19 07:36:26;;;;;;;6.30;3.15;;;15.60;99.90;;;;;;5033147;28;20014;-72
2022/04/19 07:38:52;;;;;;;5.70;3.03;;;15.70;99.90;;;;;;5032832;28;20152;-71
2022/04/19 07:41:18;;;;;;;6.78;3.25;;;15.80;99.70;;;;;;5033224;28;20026;-72
2022/04/19 07:43:47;;;;;;;8.43;3.47;;;15.90;99.90;;;;;;5031927;28;20113;-72
2022/04/19 07:46:16;;;;;;;8.93;3.17;;;16.10;99.90;;;;;;5032780;28;20028;-72
2022/04/19 07:48:47;;;;;;;8.02;3.47;;;16.20;99.90;;;;;;5031428;28;20028;-72
2022/04/19 07:51:15;;;;;;;7.63;3.15;;;16.20;99.90;;;;;;5032968;28;20406;-72
2022/04/19 07:53:41;;;;;;;7.90;3.30;;;16.40;98.70;;;;;;5033003;28;20024;-72
2022/04/19 07:56:07;;;;;;;7.78;3.42;;;16.50;99.10;;;;;;5032813;28;20065;-72
2022/04/19 07:58:33;;;;;;;6.25;3.22;;;16.60;98.90;;;;;;5032310;28;20041;-72
2022/04/19 08:01:00;;;;;;;6.65;2.90;;;16.70;97.20;;;;;;5032198;28;20037;-72
2022/04/19 08:03:26;;;;;;;7.78;2.63;;;16.80;96.00;;;;;;5032583;28;20450;-72
2022/04/19 08:05:52;;;;;;;7.38;2.95;;;17.00;95.60;;;;;;5032781;28;20030;-72
2022/04/19 08:08:21;;;;;;;6.53;3.10;;;17.10;94.60;;;;;;5034036;28;20024;-72
2022/04/19 08:10:47;;;;;;;10.25;2.92;;;17.20;96.20;;;;;;5032013;28;20033;-72
2022/04/19 08:13:16;;;;;;;7.80;3.00;;;17.20;96.30;;;;;;5033079;28;20028;-72
2022/04/19 08:15:42;;;;;;;6.22;2.72;;;17.30;95.20;;;;;;5031906;28;20081;-72
2022/04/19 08:18:13;;;;;;;7.95;2.65;;;17.30;95.00;;;;;;5032349;28;20037;-72
2022/04/19 08:20:39;;;;;;;6.43;3.00;;;17.40;96.00;;;;;;5032482;28;20387;-72
2022/04/19 08:23:05;;;;;;;7.32;2.45;;;17.40;94.90;;;;;;5032945;28;20017;-72
2022/04/19 08:25:33;;;;;;;7.88;2.80;;;17.50;95.60;;;;;;5031108;28;20038;-72
2022/04/19 08:27:58;;;;;;;6.32;2.78;;;17.50;94.50;;;;;;5031906;28;20060;-72
2022/04/19 08:30:24;;;;;;;6.88;2.50;;;17.50;95.60;;;;;;5032145;28;20107;-72
2022/04/19 08:32:50;;;;;;;6.97;2.47;;;17.70;94.70;;;;;;5032204;28;20163;-72
2022/04/19 08:35:17;;;;;;;10.05;2.70;;;17.80;93.70;;;;;;5032731;28;20037;-72
2022/04/19 08:37:43;;;;;;;9.95;2.70;;;17.90;94.50;;;;;;5031291;28;20044;-72
2022/04/19 08:40:10;;;;;;;7.72;2.97;;;18.00;92.10;;;;;;5031648;28;20100;-72
2022/04/19 08:42:38;;;;;;;7.82;2.65;;;18.20;91.80;;;;;;5031649;28;20021;-72
2022/04/19 08:45:06;;;;;;;6.15;2.60;;;18.30;91.50;;;;;;5033576;28;20100;-72
2022/04/19 08:47:45;;;;;;;8.48;3.05;;;18.40;93.10;;;;;;5033566;28;20513;-72
2022/04/19 08:50:19;;;;;;;8.68;2.60;;;18.30;92.20;;;;;;5016795;28;20486;-72
2022/04/19 08:52:45;;;;;;;6.25;2.33;;;18.40;91.80;;;;;;5027972;28;20455;-72
2022/04/19 08:57:57;;;;;;;3.88;1.85;;;18.70;90.70;;;;;;5031737;28;20044;-72
2022/04/19 09:00:24;;;;;;;5.35;3.00;;;18.80;90.90;;;;;;5032085;28;20029;-72
2022/04/19 09:02:54;;;;;;;5.93;2.35;;;19.00;90.40;;;;;;5031955;28;20029;-72
2022/04/19 09:05:23;;;;;;;7.82;2.28;;;19.00;88.90;;;;;;5032272;28;20041;-72
2022/04/19 09:07:51;;;;;;;7.78;2.42;;;19.10;85.50;;;;;;5031316;28;20018;-72
2022/04/19 09:10:31;;;;;;;7.90;2.25;;;19.10;84.20;;;;;;5031548;28;20021;-72
2022/04/19 09:13:01;;;;;;;5.25;1.98;;;19.30;86.50;;;;;;5031788;28;20030;-72
2022/04/19 09:15:47;;;;;;;6.35;2.40;;;19.40;84.70;;;;;;5031544;28;20028;-72
2022/04/19 09:18:34;;;;;;;4.40;2.13;;;19.50;83.80;;;;;;5031797;28;20143;-72
2022/04/19 09:21:03;;;;;;;7.93;2.47;;;19.60;81.80;;;;;;5031661;28;20041;-72
2022/04/19 09:23:30;;;;;;;8.38;1.83;;;19.90;81.40;;;;;;5033233;28;20028;-72
2022/04/19 09:26:08;;;;;;;4.80;2.00;;;19.90;78.60;;;;;;5030946;28;20030;-72
2022/04/19 09:28:34;;;;;;;4.95;1.67;;;20.00;76.90;;;;;;5030434;28;20500;-72
2022/04/19 09:31:01;;;;;;;6.03;2.03;;;20.10;78.50;;;;;;5032214;28;20045;-72
2022/04/19 09:33:28;;;;;;;4.22;1.70;;;20.30;78.20;;;;;;5030304;28;20026;-72
2022/04/19 09:35:55;;;;;;;12.30;2.45;;;20.40;74.80;;;;;;5031727;28;20041;-72
2022/04/19 09:38:51;;;;;;;7.60;1.88;;;20.70;79.70;;;;;;5033394;28;20033;-72
2022/04/19 09:41:31;;;;;;;5.00;1.58;;;20.80;75.00;;;;;;5011304;28;20042;-73
2022/04/19 09:44:11;;;;;;;4.25;1.60;;;20.70;69.90;;;;;;5035144;28;20101;-72
2022/04/19 09:46:37;;;;;;;3.92;1.50;;;20.60;75.60;;;;;;5034567;28;20057;-72
2022/04/19 09:49:03;;;;;;;4.30;1.80;;;20.70;69.10;;;;;;5035331;28;20060;-72
2022/04/19 09:51:36;;;;;;;4.43;1.50;;;20.70;69.00;;;;;;5035656;28;20459;-72
2022/04/19 09:54:02;;;;;;;3.88;1.55;;;20.60;70.40;;;;;;5034967;28;20514;-72
2022/04/19 09:56:37;;;;;;;4.55;1.60;;;20.80;68.50;;;;;;5034775;28;20026;-72
2022/04/19 09:59:03;;;;;;;5.45;1.60;;;21.00;67.00;;;;;;5034876;28;20078;-72
2022/04/19 10:09:33;;;;;;;5.45;1.80;;;21.30;69.20;;;;;;5034780;28;20029;-72
2022/04/19 10:12:03;;;;;;;6.70;1.65;;;21.40;72.00;;;;;;5034715;28;20017;-72
2022/04/19 10:14:32;;;;;;;4.78;1.70;;;21.60;68.00;;;;;;5034662;28;20403;-72
2022/04/19 10:16:59;;;;;;;4.05;1.48;;;22.00;69.30;;;;;;5034487;28;20533;-73
2022/04/19 10:19:27;;;;;;;3.80;1.60;;;22.00;67.10;;;;;;5034166;28;20125;-72
2022/04/19 10:21:54;;;;;;;5.22;1.80;;;22.10;69.10;;;;;;5034592;28;20033;-72
2022/04/19 10:24:20;;;;;;;3.42;1.40;;;22.10;64.50;;;;;;5034098;28;20103;-72
2022/04/19 10:26:48;;;;;;;6.22;1.65;;;22.30;63.10;;;;;;5034220;28;20029;-73
2022/04/19 10:29:21;;;;;;;3.25;1.63;;;22.20;66.10;;;;;;5034761;28;20461;-73
2022/04/19 10:32:11;;;;;;;4.73;1.87;;;22.00;63.50;;;;;;5033913;28;20037;-72
2022/04/19 10:34:39;;;;;;;4.88;1.80;;;22.00;63.60;;;;;;5033681;28;20080;-73
2022/04/19 10:37:26;;;;;;;4.80;1.73;;;22.10;62.90;;;;;;5034491;28;20030;-72
2022/04/19 10:40:03;;;;;;;3.85;1.63;;;22.30;60.80;;;;;;5033717;28;20041;-72
2022/04/19 10:42:37;;;;;;;8.00;1.83;;;22.20;60.60;;;;;;5035505;28;20021;-72
2022/04/19 10:45:12;;;;;;;5.32;1.85;;;22.30;65.70;;;;;;5035479;28;20532;-72
2022/04/19 10:47:53;;;;;;;5.45;2.00;;;22.40;59.30;;;;;;5033314;28;20033;-73
2022/04/19 10:50:30;;;;;;;3.75;1.80;;;22.20;57.60;;;;;;5018119;28;20045;-70
2022/04/19 10:53:05;;;;;;;5.82;1.70;;;22.40;60.10;;;;;;5033501;28;20037;-70
2022/04/19 10:55:32;;;;;;;4.20;1.70;;;22.50;59.90;;;;;;5032518;28;20095;-70
2022/04/19 10:58:06;;;;;;;3.50;1.50;;;22.40;59.10;;;;;;5033701;28;20359;-71
2022/04/19 11:00:35;;;;;;;5.30;1.80;;;22.40;59.10;;;;;;5032345;28;20048;-71
2022/04/19 11:03:05;;;;;;;6.97;3.72;;;22.40;59.60;;;;;;5033926;28;20028;-70
2022/04/19 11:05:46;;;;;;;12.93;8.40;;;22.40;61.00;;;;;;5033540;28;20034;-71
2022/04/19 11:08:30;;;;;;;6.85;3.40;;;22.50;60.40;;;;;;5017829;28;20017;-71
2022/04/19 11:10:56;;;;;;;5.45;1.65;;;22.50;58.90;;;;;;5031843;28;20030;-70
2022/04/19 11:13:22;;;;;;;6.25;1.88;;;22.60;60.70;;;;;;5030607;28;20037;-70
2022/04/19 11:15:58;;;;;;;3.65;1.45;;;22.70;60.30;;;;;;5033111;28;20411;-69
2022/04/19 11:18:29;;;;;;;3.40;1.70;;;22.90;59.40;;;;;;5033377;28;20076;-70
2022/04/19 11:20:58;;;;;;;3.40;1.40;;;22.80;58.30;;;;;;5033574;28;20041;-70
2022/04/19 11:23:26;;;;;;;4.72;1.50;;;22.70;54.80;;;;;;5034224;28;20032;-70
2022/04/19 11:25:53;;;;;;;3.25;1.60;;;22.70;53.50;;;;;;5032715;28;20026;-70
2022/04/19 11:28:31;;;;;;;3.92;1.50;;;22.60;54.50;;;;;;5032675;28;20056;-70
2022/04/19 11:30:57;;;;;;;3.83;1.45;;;22.90;55.60;;;;;;5033188;28;20372;-71
2022/04/19 11:33:23;;;;;;;4.05;1.60;;;22.90;56.30;;;;;;5033114;28;20044;-69
2022/04/19 11:36:01;;;;;;;5.80;1.52;;;23.00;59.30;;;;;;5033268;28;20398;-71
2022/04/19 11:38:28;;;;;;;3.95;1.40;;;23.10;55.70;;;;;;5032754;28;20034;-71
2022/04/19 11:49:09;;;;;;;5.70;1.45;;;23.20;52.70;;;;;;5034817;28;20123;-70
2022/04/19 11:51:36;;;;;;;3.28;1.42;;;23.20;52.90;;;;;;5032303;28;20037;-69
2022/04/19 11:54:08;;;;;;;3.63;1.35;;;23.30;54.00;;;;;;5033093;28;20117;-70
2022/04/19 11:56:34;;;;;;;5.00;1.42;;;23.50;56.30;;;;;;5032953;28;20429;-71
2022/04/19 11:59:01;;;;;;;4.10;1.77;;;23.70;56.20;;;;;;5032054;28;20025;-80
2022/04/19 12:01:29;;;;;;;4.53;1.90;;;23.70;55.90;;;;;;5033121;28;20026;-75
2022/04/19 12:03:55;;;;;;;6.45;3.85;;;23.80;53.00;;;;;;5033847;28;20037;-72
2022/04/19 12:06:22;;;;;;;6.57;3.10;;;23.80;53.60;;;;;;5032646;28;20044;-70
2022/04/19 12:20:26;;;;;;;3.85;1.40;;;24.10;55.00;;;;;;5149661;27;20533;-72
2022/04/19 12:22:51;;;;;;;4.35;1.50;;;24.10;53.30;;;;;;5150112;27;20015;-71
2022/04/19 12:25:23;;;;;;;3.33;1.40;;;24.20;55.50;;;;;;5149819;27;20038;-72
2022/04/19 12:27:51;;;;;;;3.15;1.48;;;24.30;53.20;;;;;;5149372;27;20015;-72
2022/04/19 12:30:17;;;;;;;3.63;1.90;;;24.20;53.70;;;;;;5150084;27;20027;-72
2022/04/19 12:32:59;;;;;;;5.32;2.15;;;24.20;54.90;;;;;;5149844;27;20096;-71
2022/04/19 12:35:34;;;;;;;5.43;1.60;;;24.40;57.70;;;;;;5149886;27;20030;-71
2022/04/19 12:38:13;;;;;;;2.50;1.40;;;24.30;53.50;;;;;;5149467;27;20049;-72
2022/04/19 12:40:40;;;;;;;5.00;1.80;;;24.40;54.30;;;;;;5149121;27;20033;-72
2022/04/19 12:43:06;;;;;;;5.03;2.17;;;24.30;55.10;;;;;;5149053;27;20023;-72
2022/04/19 12:45:37;;;;;;;5.00;1.70;;;24.20;55.30;;;;;;5149272;27;20030;-71
2022/04/19 12:48:07;;;;;;;6.13;1.80;;;24.30;55.50;;;;;;5145101;27;20031;-72
2022/04/19 12:50:33;;;;;;;5.82;1.75;;;24.20;56.10;;;;;;5149271;27;20034;-71
2022/04/19 12:52:59;;;;;;;4.35;1.70;;;24.30;54.50;;;;;;5142287;27;20035;-72
2022/04/19 12:58:16;;;;;;;7.95;2.30;;;24.10;55.10;;;;;;5148549;27;20030;-72
2022/04/19 13:00:42;;;;;;;3.17;1.40;;;24.20;55.10;;;;;;5148583;27;20023;-72
2022/04/19 13:03:07;;;;;;;6.80;1.80;;;24.20;54.20;;;;;;5149065;27;20027;-72
2022/04/19 13:13:45;;;;;;;2.50;1.30;;;24.20;52.10;;;;;;5148299;27;20049;-72
2022/04/19 13:16:11;;;;;;;3.50;1.30;;;24.00;51.00;;;;;;5148988;27;20532;-72
2022/04/19 13:18:37;;;;;;;3.33;1.42;;;24.00;51.90;;;;;;5148148;27;20047;-72
2022/04/19 13:21:03;;;;;;;3.72;1.42;;;24.10;52.30;;;;;;5136972;27;20015;-71
2022/04/19 13:23:29;;;;;;;3.10;1.50;;;24.10;52.20;;;;;;5135021;27;20053;-70
2022/04/19 13:25:55;;;;;;;5.05;1.40;;;24.00;51.20;;;;;;5134306;27;20484;-71
2022/04/19 13:28:25;;;;;;;6.18;1.60;;;23.70;50.20;;;;;;5126246;27;20501;-70
2022/04/19 13:30:54;;;;;;;3.28;1.30;;;23.60;50.10;;;;;;5127821;27;20035;-70
2022/04/19 13:33:20;;;;;;;5.78;1.52;;;23.50;49.50;;;;;;5134461;27;20025;-69
2022/04/19 13:35:46;;;;;;;5.97;1.40;;;23.70;50.90;;;;;;5134551;27;20110;-71
2022/04/19 13:38:24;;;;;;;3.30;1.63;;;23.90;49.90;;;;;;5134512;27;20156;-72
2022/04/19 13:40:50;;;;;;;6.65;1.70;;;23.70;50.50;;;;;;5133861;27;20516;-72
2022/04/19 13:43:16;;;;;;;3.50;1.38;;;23.50;50.60;;;;;;5134754;27;20037;-71
2022/04/19 13:45:43;;;;;;;5.97;1.50;;;23.70;51.50;;;;;;5134739;27;20536;-71
2022/04/19 13:48:09;;;;;;;2.92;1.17;;;23.80;50.90;;;;;;5134426;27;20031;-73
2022/04/19 13:50:35;;;;;;;2.70;1.25;;;24.00;51.80;;;;;;5134444;27;20023;-74
2022/04/19 13:53:03;;;;;;;4.82;1.45;;;24.00;50.30;;;;;;5134114;27;20477;-73
2022/04/19 13:55:29;;;;;;;4.30;1.40;;;24.10;50.70;;;;;;5133733;27;20385;-73
2022/04/19 13:57:55;;;;;;;5.47;1.90;;;24.30;51.30;;;;;;5134442;27;20034;-72